sensor_id;sensor_type;location;lat;lon;timestamp;P1;durP1;ratioP1;P2;durP2;ratioP2
20185;SDS011;10252;48.792;8.582;2022-12-29T00:03:41;3.85;;;1.80;;
20185;SDS011;10252;48.792;8.582;2022-12-29T00:08:45;4.97;;;1.70;;
20185;SDS011;10252;48.792;8.582;2022-12-29T00:13:48;3.40;;;1.90;;
20185;SDS011;10252;48.792;8.582;2022-12-29T00:19:08;5.40;;;1.88;;
20185;SDS011;10252;48.792;8.582;2022-12-29T00:24:28;4.22;;;2.00;;
20185;SDS011;10252;48.792;8.582;2022-12-29T00:30:12;4.90;;;1.95;;
20185;SDS011;10252;48.792;8.582;2022-12-29T00:35:33;2.63;;;1.70;;
20185;SDS011;10252;48.792;8.582;2022-12-29T00:40:36;5.18;;;1.90;;
20185;SDS011;10252;48.792;8.582;2022-12-29T00:45:56;4.00;;;2.00;;
20185;SDS011;10252;48.792;8.582;2022-12-29T00:50:58;3.65;;;2.28;;
20185;SDS011;10252;48.792;8.582;2022-12-29T00:55:59;3.50;;;1.77;;
20185;SDS011;10252;48.792;8.582;2022-12-29T01:01:04;6.35;;;2.47;;
20185;SDS011;10252;48.792;8.582;2022-12-29T01:06:07;2.88;;;1.75;;
20185;SDS011;10252;48.792;8.582;2022-12-29T01:11:11;2.70;;;1.42;;
20185;SDS011;10252;48.792;8.582;2022-12-29T01:16:12;2.17;;;1.13;;
20185;SDS011;10252;48.792;8.582;2022-12-29T01:21:15;3.13;;;1.58;;
20185;SDS011;10252;48.792;8.582;2022-12-29T01:26:17;2.03;;;1.05;;
20185;SDS011;10252;48.792;8.582;2022-12-29T01:31:18;3.33;;;1.20;;
20185;SDS011;10252;48.792;8.582;2022-12-29T01:36:19;3.45;;;1.23;;
20185;SDS011;10252;48.792;8.582;2022-12-29T01:41:22;3.38;;;0.85;;
20185;SDS011;10252;48.792;8.582;2022-12-29T01:51:31;2.97;;;0.80;;
20185;SDS011;10252;48.792;8.582;2022-12-29T01:56:33;0.93;;;0.85;;
20185;SDS011;10252;48.792;8.582;2022-12-29T02:01:34;1.80;;;1.00;;
20185;SDS011;10252;48.792;8.582;2022-12-29T02:06:46;1.20;;;1.00;;
20185;SDS011;10252;48.792;8.582;2022-12-29T02:11:49;2.15;;;1.10;;
20185;SDS011;10252;48.792;8.582;2022-12-29T02:32:29;2.90;;;1.00;;
20185;SDS011;10252;48.792;8.582;2022-12-29T02:42:47;2.75;;;1.10;;
20185;SDS011;10252;48.792;8.582;2022-12-29T02:48:04;1.58;;;1.10;;
20185;SDS011;10252;48.792;8.582;2022-12-29T02:53:11;1.80;;;0.95;;
20185;SDS011;10252;48.792;8.582;2022-12-29T02:58:21;3.95;;;1.08;;
20185;SDS011;10252;48.792;8.582;2022-12-29T03:03:26;1.67;;;1.00;;
20185;SDS011;10252;48.792;8.582;2022-12-29T03:13:39;2.30;;;1.10;;
20185;SDS011;10252;48.792;8.582;2022-12-29T03:19:05;2.78;;;1.10;;
20185;SDS011;10252;48.792;8.582;2022-12-29T03:24:08;2.40;;;1.08;;
20185;SDS011;10252;48.792;8.582;2022-12-29T03:29:10;1.67;;;1.05;;
20185;SDS011;10252;48.792;8.582;2022-12-29T03:34:11;2.45;;;1.10;;
20185;SDS011;10252;48.792;8.582;2022-12-29T03:39:14;0.75;;;0.75;;
20185;SDS011;10252;48.792;8.582;2022-12-29T03:44:15;1.15;;;0.70;;
20185;SDS011;10252;48.792;8.582;2022-12-29T03:49:16;3.08;;;1.05;;
20185;SDS011;10252;48.792;8.582;2022-12-29T03:54:17;2.10;;;1.10;;
20185;SDS011;10252;48.792;8.582;2022-12-29T03:59:19;1.83;;;0.98;;
20185;SDS011;10252;48.792;8.582;2022-12-29T04:04:20;1.20;;;0.95;;
20185;SDS011;10252;48.792;8.582;2022-12-29T04:09:21;1.85;;;0.90;;
20185;SDS011;10252;48.792;8.582;2022-12-29T04:14:23;1.70;;;0.80;;
20185;SDS011;10252;48.792;8.582;2022-12-29T04:19:26;1.10;;;1.00;;
20185;SDS011;10252;48.792;8.582;2022-12-29T04:24:27;3.08;;;1.15;;
20185;SDS011;10252;48.792;8.582;2022-12-29T04:29:28;2.67;;;0.93;;
20185;SDS011;10252;48.792;8.582;2022-12-29T04:34:41;2.03;;;1.10;;
20185;SDS011;10252;48.792;8.582;2022-12-29T04:39:42;2.67;;;1.13;;
20185;SDS011;10252;48.792;8.582;2022-12-29T04:44:43;2.00;;;1.30;;
20185;SDS011;10252;48.792;8.582;2022-12-29T04:49:48;2.42;;;1.10;;
20185;SDS011;10252;48.792;8.582;2022-12-29T04:55:03;2.47;;;1.00;;
20185;SDS011;10252;48.792;8.582;2022-12-29T05:00:04;1.38;;;1.23;;
20185;SDS011;10252;48.792;8.582;2022-12-29T05:05:06;2.33;;;1.10;;
20185;SDS011;10252;48.792;8.582;2022-12-29T05:10:09;3.15;;;1.30;;
20185;SDS011;10252;48.792;8.582;2022-12-29T05:15:11;2.67;;;1.10;;
20185;SDS011;10252;48.792;8.582;2022-12-29T05:20:21;2.20;;;1.20;;
20185;SDS011;10252;48.792;8.582;2022-12-29T05:25:22;1.58;;;0.90;;
20185;SDS011;10252;48.792;8.582;2022-12-29T05:30:34;2.22;;;1.00;;
20185;SDS011;10252;48.792;8.582;2022-12-29T05:35:35;3.92;;;1.90;;
20185;SDS011;10252;48.792;8.582;2022-12-29T05:40:36;2.88;;;1.08;;
20185;SDS011;10252;48.792;8.582;2022-12-29T05:45:46;1.33;;;1.00;;
20185;SDS011;10252;48.792;8.582;2022-12-29T05:51:09;1.45;;;1.20;;
20185;SDS011;10252;48.792;8.582;2022-12-29T05:56:28;2.78;;;1.25;;
20185;SDS011;10252;48.792;8.582;2022-12-29T06:01:31;1.98;;;1.20;;
20185;SDS011;10252;48.792;8.582;2022-12-29T06:06:34;2.03;;;1.35;;
20185;SDS011;10252;48.792;8.582;2022-12-29T06:11:36;1.50;;;0.95;;
20185;SDS011;10252;48.792;8.582;2022-12-29T06:16:37;2.08;;;1.42;;
20185;SDS011;10252;48.792;8.582;2022-12-29T06:21:43;1.40;;;1.20;;
20185;SDS011;10252;48.792;8.582;2022-12-29T06:26:44;3.90;;;1.33;;
20185;SDS011;10252;48.792;8.582;2022-12-29T06:31:45;1.92;;;1.08;;
20185;SDS011;10252;48.792;8.582;2022-12-29T06:36:46;3.08;;;0.98;;
20185;SDS011;10252;48.792;8.582;2022-12-29T06:41:48;2.08;;;1.00;;
20185;SDS011;10252;48.792;8.582;2022-12-29T06:47:16;2.35;;;1.17;;
20185;SDS011;10252;48.792;8.582;2022-12-29T06:52:17;1.10;;;1.00;;
20185;SDS011;10252;48.792;8.582;2022-12-29T06:57:18;1.65;;;1.30;;
20185;SDS011;10252;48.792;8.582;2022-12-29T07:02:19;2.38;;;1.13;;
20185;SDS011;10252;48.792;8.582;2022-12-29T07:07:23;3.33;;;1.50;;
20185;SDS011;10252;48.792;8.582;2022-12-29T07:12:24;2.45;;;1.40;;
20185;SDS011;10252;48.792;8.582;2022-12-29T07:17:25;2.13;;;1.80;;
20185;SDS011;10252;48.792;8.582;2022-12-29T07:22:26;2.28;;;1.52;;
20185;SDS011;10252;48.792;8.582;2022-12-29T07:27:28;3.58;;;1.27;;
20185;SDS011;10252;48.792;8.582;2022-12-29T07:32:32;5.35;;;1.23;;
20185;SDS011;10252;48.792;8.582;2022-12-29T07:37:33;4.85;;;2.03;;
20185;SDS011;10252;48.792;8.582;2022-12-29T07:42:35;5.50;;;1.30;;
20185;SDS011;10252;48.792;8.582;2022-12-29T07:47:37;2.75;;;1.48;;
20185;SDS011;10252;48.792;8.582;2022-12-29T07:52:38;1.52;;;1.30;;
20185;SDS011;10252;48.792;8.582;2022-12-29T07:57:39;3.60;;;1.33;;
20185;SDS011;10252;48.792;8.582;2022-12-29T08:02:43;3.20;;;1.42;;
20185;SDS011;10252;48.792;8.582;2022-12-29T08:07:44;3.42;;;1.63;;
20185;SDS011;10252;48.792;8.582;2022-12-29T08:12:46;5.78;;;1.38;;
20185;SDS011;10252;48.792;8.582;2022-12-29T08:17:47;2.83;;;1.40;;
20185;SDS011;10252;48.792;8.582;2022-12-29T08:22:48;2.97;;;1.40;;
20185;SDS011;10252;48.792;8.582;2022-12-29T08:27:49;3.25;;;1.50;;
20185;SDS011;10252;48.792;8.582;2022-12-29T08:32:50;5.38;;;1.50;;
20185;SDS011;10252;48.792;8.582;2022-12-29T08:37:51;3.30;;;1.25;;
20185;SDS011;10252;48.792;8.582;2022-12-29T08:42:52;3.30;;;1.52;;
20185;SDS011;10252;48.792;8.582;2022-12-29T08:47:59;5.95;;;1.30;;
20185;SDS011;10252;48.792;8.582;2022-12-29T08:53:00;2.35;;;1.25;;
20185;SDS011;10252;48.792;8.582;2022-12-29T08:58:01;3.30;;;1.15;;
20185;SDS011;10252;48.792;8.582;2022-12-29T09:03:02;1.27;;;1.10;;
20185;SDS011;10252;48.792;8.582;2022-12-29T09:08:03;2.90;;;1.10;;
20185;SDS011;10252;48.792;8.582;2022-12-29T09:13:04;1.65;;;1.00;;
20185;SDS011;10252;48.792;8.582;2022-12-29T09:18:06;3.78;;;1.55;;
20185;SDS011;10252;48.792;8.582;2022-12-29T09:23:07;2.15;;;1.00;;
20185;SDS011;10252;48.792;8.582;2022-12-29T09:28:08;2.72;;;1.30;;
20185;SDS011;10252;48.792;8.582;2022-12-29T09:33:09;1.60;;;0.90;;
20185;SDS011;10252;48.792;8.582;2022-12-29T09:38:11;1.52;;;1.20;;
20185;SDS011;10252;48.792;8.582;2022-12-29T09:43:32;1.63;;;1.08;;
20185;SDS011;10252;48.792;8.582;2022-12-29T09:48:37;3.40;;;1.00;;
20185;SDS011;10252;48.792;8.582;2022-12-29T09:53:41;2.80;;;1.08;;
20185;SDS011;10252;48.792;8.582;2022-12-29T09:58:50;1.65;;;1.13;;
20185;SDS011;10252;48.792;8.582;2022-12-29T10:03:54;1.10;;;1.00;;
20185;SDS011;10252;48.792;8.582;2022-12-29T10:09:11;2.03;;;1.30;;
20185;SDS011;10252;48.792;8.582;2022-12-29T10:14:17;0.98;;;0.80;;
20185;SDS011;10252;48.792;8.582;2022-12-29T10:24:22;1.67;;;1.10;;
20185;SDS011;10252;48.792;8.582;2022-12-29T10:29:28;3.42;;;1.13;;
20185;SDS011;10252;48.792;8.582;2022-12-29T10:34:37;0.93;;;0.90;;
20185;SDS011;10252;48.792;8.582;2022-12-29T10:44:45;3.45;;;1.30;;
20185;SDS011;10252;48.792;8.582;2022-12-29T10:49:46;1.88;;;1.10;;
20185;SDS011;10252;48.792;8.582;2022-12-29T10:54:53;1.50;;;1.40;;
20185;SDS011;10252;48.792;8.582;2022-12-29T10:59:54;1.55;;;1.08;;
20185;SDS011;10252;48.792;8.582;2022-12-29T11:15:44;1.83;;;1.23;;
20185;SDS011;10252;48.792;8.582;2022-12-29T11:20:45;2.15;;;0.98;;
20185;SDS011;10252;48.792;8.582;2022-12-29T11:25:56;0.95;;;0.80;;
20185;SDS011;10252;48.792;8.582;2022-12-29T11:31:09;1.92;;;0.70;;
20185;SDS011;10252;48.792;8.582;2022-12-29T11:36:15;1.10;;;0.73;;
20185;SDS011;10252;48.792;8.582;2022-12-29T11:41:21;1.00;;;0.77;;
20185;SDS011;10252;48.792;8.582;2022-12-29T11:51:37;1.33;;;0.90;;
20185;SDS011;10252;48.792;8.582;2022-12-29T11:56:40;1.08;;;0.82;;
20185;SDS011;10252;48.792;8.582;2022-12-29T12:01:42;1.83;;;0.73;;
20185;SDS011;10252;48.792;8.582;2022-12-29T12:06:56;4.40;;;1.10;;
20185;SDS011;10252;48.792;8.582;2022-12-29T12:11:59;1.35;;;1.00;;
20185;SDS011;10252;48.792;8.582;2022-12-29T12:17:05;1.85;;;1.27;;
20185;SDS011;10252;48.792;8.582;2022-12-29T12:22:11;1.55;;;1.20;;
20185;SDS011;10252;48.792;8.582;2022-12-29T12:37:46;1.20;;;1.10;;
20185;SDS011;10252;48.792;8.582;2022-12-29T12:48:10;2.47;;;1.58;;
20185;SDS011;10252;48.792;8.582;2022-12-29T12:58:43;2.10;;;0.95;;
20185;SDS011;10252;48.792;8.582;2022-12-29T13:24:02;2.55;;;1.38;;
20185;SDS011;10252;48.792;8.582;2022-12-29T13:29:17;1.85;;;0.80;;
20185;SDS011;10252;48.792;8.582;2022-12-29T13:44:30;1.00;;;0.90;;
20185;SDS011;10252;48.792;8.582;2022-12-29T13:49:32;1.27;;;0.90;;
20185;SDS011;10252;48.792;8.582;2022-12-29T13:59:40;1.85;;;1.00;;
20185;SDS011;10252;48.792;8.582;2022-12-29T14:04:57;2.35;;;1.35;;
20185;SDS011;10252;48.792;8.582;2022-12-29T14:09:58;1.67;;;1.20;;
20185;SDS011;10252;48.792;8.582;2022-12-29T14:15:32;1.52;;;1.35;;
20185;SDS011;10252;48.792;8.582;2022-12-29T14:20:27;3.05;;;1.20;;
20185;SDS011;10252;48.792;8.582;2022-12-29T14:30:52;1.08;;;0.88;;
20185;SDS011;10252;48.792;8.582;2022-12-29T14:35:54;2.17;;;1.00;;
20185;SDS011;10252;48.792;8.582;2022-12-29T14:46:15;1.73;;;1.23;;
20185;SDS011;10252;48.792;8.582;2022-12-29T14:51:34;1.38;;;1.27;;
20185;SDS011;10252;48.792;8.582;2022-12-29T14:56:36;4.32;;;1.55;;
20185;SDS011;10252;48.792;8.582;2022-12-29T15:01:40;0.80;;;0.68;;
20185;SDS011;10252;48.792;8.582;2022-12-29T15:06:43;1.20;;;0.60;;
20185;SDS011;10252;48.792;8.582;2022-12-29T15:11:56;1.42;;;0.30;;
20185;SDS011;10252;48.792;8.582;2022-12-29T15:16:58;1.02;;;0.50;;
20185;SDS011;10252;48.792;8.582;2022-12-29T15:21:59;0.85;;;0.32;;
20185;SDS011;10252;48.792;8.582;2022-12-29T15:27:02;1.48;;;0.63;;
20185;SDS011;10252;48.792;8.582;2022-12-29T15:32:21;1.67;;;1.30;;
20185;SDS011;10252;48.792;8.582;2022-12-29T15:37:25;3.38;;;1.17;;
20185;SDS011;10252;48.792;8.582;2022-12-29T15:47:41;3.35;;;1.50;;
20185;SDS011;10252;48.792;8.582;2022-12-29T15:52:43;4.45;;;3.15;;
20185;SDS011;10252;48.792;8.582;2022-12-29T15:57:44;3.50;;;2.28;;
20185;SDS011;10252;48.792;8.582;2022-12-29T16:02:45;3.15;;;2.40;;
20185;SDS011;10252;48.792;8.582;2022-12-29T16:07:56;7.88;;;3.33;;
20185;SDS011;10252;48.792;8.582;2022-12-29T16:13:01;10.50;;;6.50;;
20185;SDS011;10252;48.792;8.582;2022-12-29T16:18:02;3.63;;;1.77;;
20185;SDS011;10252;48.792;8.582;2022-12-29T16:23:04;2.00;;;1.02;;
20185;SDS011;10252;48.792;8.582;2022-12-29T16:28:14;1.08;;;0.50;;
20185;SDS011;10252;48.792;8.582;2022-12-29T16:33:29;4.38;;;2.35;;
20185;SDS011;10252;48.792;8.582;2022-12-29T16:38:33;3.45;;;1.38;;
20185;SDS011;10252;48.792;8.582;2022-12-29T16:43:35;2.95;;;1.05;;
20185;SDS011;10252;48.792;8.582;2022-12-29T16:48:49;4.22;;;2.42;;
20185;SDS011;10252;48.792;8.582;2022-12-29T16:53:52;3.20;;;0.93;;
20185;SDS011;10252;48.792;8.582;2022-12-29T16:59:04;3.15;;;1.20;;
20185;SDS011;10252;48.792;8.582;2022-12-29T17:04:10;6.32;;;3.15;;
20185;SDS011;10252;48.792;8.582;2022-12-29T17:09:25;2.67;;;1.20;;
20185;SDS011;10252;48.792;8.582;2022-12-29T17:14:31;2.05;;;0.75;;
20185;SDS011;10252;48.792;8.582;2022-12-29T17:19:34;2.00;;;0.80;;
20185;SDS011;10252;48.792;8.582;2022-12-29T17:24:35;1.05;;;0.60;;
20185;SDS011;10252;48.792;8.582;2022-12-29T17:29:38;0.75;;;0.50;;
20185;SDS011;10252;48.792;8.582;2022-12-29T17:34:40;2.00;;;0.80;;
20185;SDS011;10252;48.792;8.582;2022-12-29T17:39:41;3.35;;;2.03;;
20185;SDS011;10252;48.792;8.582;2022-12-29T17:44:42;1.85;;;1.05;;
20185;SDS011;10252;48.792;8.582;2022-12-29T17:49:43;0.98;;;0.70;;
20185;SDS011;10252;48.792;8.582;2022-12-29T17:54:46;4.43;;;0.90;;
20185;SDS011;10252;48.792;8.582;2022-12-29T17:59:48;1.73;;;0.57;;
20185;SDS011;10252;48.792;8.582;2022-12-29T18:04:49;3.20;;;0.45;;
20185;SDS011;10252;48.792;8.582;2022-12-29T18:09:50;4.35;;;0.98;;
20185;SDS011;10252;48.792;8.582;2022-12-29T18:14:51;4.22;;;1.20;;
20185;SDS011;10252;48.792;8.582;2022-12-29T18:19:52;3.63;;;0.85;;
20185;SDS011;10252;48.792;8.582;2022-12-29T18:24:54;1.05;;;0.50;;
20185;SDS011;10252;48.792;8.582;2022-12-29T18:29:55;3.28;;;0.63;;
20185;SDS011;10252;48.792;8.582;2022-12-29T18:34:56;3.60;;;0.75;;
20185;SDS011;10252;48.792;8.582;2022-12-29T18:39:57;2.88;;;0.85;;
20185;SDS011;10252;48.792;8.582;2022-12-29T18:44:58;5.05;;;0.70;;
20185;SDS011;10252;48.792;8.582;2022-12-29T18:49:59;1.77;;;1.27;;
20185;SDS011;10252;48.792;8.582;2022-12-29T18:55:00;2.55;;;0.60;;
20185;SDS011;10252;48.792;8.582;2022-12-29T19:00:02;1.00;;;0.43;;
20185;SDS011;10252;48.792;8.582;2022-12-29T19:05:05;1.42;;;0.60;;
20185;SDS011;10252;48.792;8.582;2022-12-29T19:10:13;4.10;;;1.30;;
20185;SDS011;10252;48.792;8.582;2022-12-29T19:15:24;4.93;;;2.92;;
20185;SDS011;10252;48.792;8.582;2022-12-29T19:25:34;3.05;;;0.80;;
20185;SDS011;10252;48.792;8.582;2022-12-29T19:30:36;4.75;;;1.30;;
20185;SDS011;10252;48.792;8.582;2022-12-29T19:35:37;2.55;;;2.08;;
20185;SDS011;10252;48.792;8.582;2022-12-29T19:40:42;4.90;;;2.33;;
20185;SDS011;10252;48.792;8.582;2022-12-29T19:45:43;3.10;;;2.80;;
20185;SDS011;10252;48.792;8.582;2022-12-29T19:50:45;4.22;;;1.85;;
20185;SDS011;10252;48.792;8.582;2022-12-29T19:55:46;10.10;;;2.50;;
20185;SDS011;10252;48.792;8.582;2022-12-29T20:00:47;4.18;;;1.17;;
20185;SDS011;10252;48.792;8.582;2022-12-29T20:05:50;6.07;;;1.30;;
20185;SDS011;10252;48.792;8.582;2022-12-29T20:15:59;3.53;;;0.68;;
20185;SDS011;10252;48.792;8.582;2022-12-29T20:21:04;4.75;;;1.00;;
20185;SDS011;10252;48.792;8.582;2022-12-29T20:26:06;2.10;;;0.65;;
20185;SDS011;10252;48.792;8.582;2022-12-29T20:31:15;0.95;;;0.40;;
20185;SDS011;10252;48.792;8.582;2022-12-29T20:36:17;2.80;;;0.40;;
20185;SDS011;10252;48.792;8.582;2022-12-29T20:41:19;0.65;;;0.57;;
20185;SDS011;10252;48.792;8.582;2022-12-29T20:46:21;2.13;;;0.43;;
20185;SDS011;10252;48.792;8.582;2022-12-29T20:51:23;1.23;;;0.30;;
20185;SDS011;10252;48.792;8.582;2022-12-29T20:56:25;2.63;;;0.50;;
20185;SDS011;10252;48.792;8.582;2022-12-29T21:01:26;4.45;;;0.45;;
20185;SDS011;10252;48.792;8.582;2022-12-29T21:06:27;2.55;;;0.60;;
20185;SDS011;10252;48.792;8.582;2022-12-29T21:11:28;2.47;;;0.70;;
20185;SDS011;10252;48.792;8.582;2022-12-29T21:16:30;2.05;;;0.43;;
20185;SDS011;10252;48.792;8.582;2022-12-29T21:21:31;1.50;;;0.60;;
20185;SDS011;10252;48.792;8.582;2022-12-29T21:26:32;4.57;;;1.40;;
20185;SDS011;10252;48.792;8.582;2022-12-29T21:31:33;3.13;;;0.88;;
20185;SDS011;10252;48.792;8.582;2022-12-29T21:36:35;13.50;;;7.00;;
20185;SDS011;10252;48.792;8.582;2022-12-29T21:41:36;3.70;;;0.75;;
20185;SDS011;10252;48.792;8.582;2022-12-29T21:46:38;4.68;;;1.15;;
20185;SDS011;10252;48.792;8.582;2022-12-29T21:51:40;3.72;;;2.47;;
20185;SDS011;10252;48.792;8.582;2022-12-29T21:56:50;3.65;;;2.33;;
20185;SDS011;10252;48.792;8.582;2022-12-29T22:01:51;6.60;;;3.08;;
20185;SDS011;10252;48.792;8.582;2022-12-29T22:07:11;2.85;;;1.20;;
20185;SDS011;10252;48.792;8.582;2022-12-29T22:12:31;4.35;;;1.05;;
20185;SDS011;10252;48.792;8.582;2022-12-29T22:17:51;6.15;;;2.20;;
20185;SDS011;10252;48.792;8.582;2022-12-29T22:22:53;1.02;;;0.82;;
20185;SDS011;10252;48.792;8.582;2022-12-29T22:27:54;3.03;;;0.60;;
20185;SDS011;10252;48.792;8.582;2022-12-29T22:32:55;4.45;;;1.48;;
20185;SDS011;10252;48.792;8.582;2022-12-29T22:37:57;3.50;;;1.30;;
20185;SDS011;10252;48.792;8.582;2022-12-29T22:42:58;2.40;;;1.30;;
20185;SDS011;10252;48.792;8.582;2022-12-29T22:47:59;2.47;;;1.05;;
20185;SDS011;10252;48.792;8.582;2022-12-29T22:53:00;4.80;;;1.42;;
20185;SDS011;10252;48.792;8.582;2022-12-29T22:58:02;13.15;;;6.82;;
20185;SDS011;10252;48.792;8.582;2022-12-29T23:03:03;47.10;;;18.13;;
20185;SDS011;10252;48.792;8.582;2022-12-29T23:08:04;74.95;;;29.42;;
20185;SDS011;10252;48.792;8.582;2022-12-29T23:13:05;19.20;;;10.35;;
20185;SDS011;10252;48.792;8.582;2022-12-29T23:18:06;10.07;;;4.82;;
20185;SDS011;10252;48.792;8.582;2022-12-29T23:23:07;7.75;;;3.25;;
20185;SDS011;10252;48.792;8.582;2022-12-29T23:28:08;16.10;;;9.68;;
20185;SDS011;10252;48.792;8.582;2022-12-29T23:33:10;3.22;;;2.72;;
20185;SDS011;10252;48.792;8.582;2022-12-29T23:38:11;7.22;;;2.85;;
20185;SDS011;10252;48.792;8.582;2022-12-29T23:43:12;6.25;;;4.15;;
20185;SDS011;10252;48.792;8.582;2022-12-29T23:48:13;5.10;;;2.67;;
20185;SDS011;10252;48.792;8.582;2022-12-29T23:53:14;5.20;;;2.42;;
20185;SDS011;10252;48.792;8.582;2022-12-29T23:58:15;5.53;;;2.00;;
